createdAt,value
2023-02-13T00:00:12.833Z,0.00
2023-02-13T00:02:39.470Z,0.00
2023-02-13T00:05:06.716Z,-0.10
2023-02-13T00:07:33.325Z,-0.20
2023-02-13T00:09:59.934Z,-0.20
2023-02-13T00:12:26.624Z,-0.30
2023-02-13T00:14:54.304Z,-0.30
2023-02-13T00:17:20.854Z,-0.30
2023-02-13T00:19:47.413Z,-0.30
2023-02-13T00:22:16.523Z,-0.40
2023-02-13T00:24:43.759Z,-0.40
2023-02-13T00:27:10.356Z,-0.40
2023-02-13T00:29:37.067Z,-0.40
2023-02-13T00:32:03.847Z,-0.40
2023-02-13T00:34:30.548Z,-0.40
2023-02-13T00:36:57.177Z,-0.40
2023-02-13T00:39:23.781Z,-0.40
2023-02-13T00:41:50.396Z,-0.50
2023-02-13T00:44:17.013Z,-0.50
2023-02-13T00:46:43.780Z,-0.50
2023-02-13T00:49:10.495Z,-0.60
2023-02-13T00:51:37.128Z,-0.50
2023-02-13T00:54:04.083Z,-0.50
2023-02-13T00:56:30.667Z,-0.40
2023-02-13T00:58:57.238Z,-0.50
2023-02-13T01:01:23.882Z,-0.60
2023-02-13T01:03:50.571Z,-0.60
2023-02-13T01:06:17.155Z,-0.60
2023-02-13T01:08:43.772Z,-0.60
2023-02-13T01:11:10.360Z,-0.60
2023-02-13T01:13:37.082Z,-0.60
2023-02-13T01:16:03.819Z,-0.50
2023-02-13T01:18:30.483Z,-0.50
2023-02-13T01:21:02.207Z,-0.50
2023-02-13T01:23:34.104Z,-0.60
2023-02-13T01:26:00.980Z,-0.70
2023-02-13T01:28:27.822Z,-0.70
2023-02-13T01:30:56.790Z,-0.80
2023-02-13T01:33:25.411Z,-0.90
2023-02-13T01:35:52.366Z,-0.90
2023-02-13T01:38:18.995Z,-1.00
2023-02-13T01:40:47.308Z,-1.00
2023-02-13T01:43:14.640Z,-0.90
2023-02-13T01:45:42.442Z,-1.00
2023-02-13T01:48:18.927Z,-0.90
2023-02-13T01:50:55.534Z,-0.90
2023-02-13T01:53:31.871Z,-0.90
2023-02-13T01:56:15.012Z,-1.00
2023-02-13T01:58:44.984Z,-1.00
2023-02-13T02:01:12.160Z,-0.90
2023-02-13T02:04:10.654Z,-1.00
2023-02-13T02:06:46.108Z,-0.90
2023-02-13T02:09:18.703Z,-0.90
2023-02-13T02:12:10.159Z,-0.80
2023-02-13T02:14:37.718Z,-0.80
2023-02-13T02:17:04.384Z,-0.70
2023-02-13T02:19:55.496Z,-0.80
2023-02-13T02:22:43.624Z,-0.70
2023-02-13T02:25:47.822Z,-0.70
2023-02-13T02:28:33.408Z,-0.70
2023-02-13T02:31:40.381Z,-0.80
2023-02-13T02:34:35.710Z,-0.80
2023-02-13T02:37:13.476Z,-0.90
2023-02-13T02:40:15.038Z,-1.00
2023-02-13T02:42:50.177Z,-1.00
2023-02-13T02:45:37.732Z,-1.10
2023-02-13T02:48:32.626Z,-1.10
2023-02-13T02:51:03.251Z,-1.10
2023-02-13T02:53:37.671Z,-1.10
2023-02-13T02:56:35.183Z,-1.10
2023-02-13T02:59:28.904Z,-1.20
2023-02-13T03:02:15.832Z,-1.20
2023-02-13T03:05:03.990Z,-1.20
2023-02-13T03:07:30.861Z,-1.20
2023-02-13T03:10:26.659Z,-1.30
2023-02-13T03:13:21.091Z,-1.30
2023-02-13T03:16:08.944Z,-1.30
2023-02-13T03:19:01.996Z,-1.30
2023-02-13T03:21:53.606Z,-1.30
2023-02-13T03:24:35.369Z,-1.30
2023-02-13T03:27:12.065Z,-1.30
2023-02-13T03:30:00.345Z,-1.30
2023-02-13T03:32:36.583Z,-1.30
2023-02-13T03:35:53.005Z,-1.30
2023-02-13T03:38:31.874Z,-1.30
2023-02-13T03:41:19.261Z,-1.40
2023-02-13T03:44:10.054Z,-1.50
2023-02-13T03:46:39.731Z,-1.50
2023-02-13T03:49:28.956Z,-1.50
2023-02-13T03:52:07.663Z,-1.50
2023-02-13T03:55:02.993Z,-1.50
2023-02-13T03:57:50.707Z,-1.50
2023-02-13T04:00:19.770Z,-1.50
2023-02-13T04:03:05.194Z,-1.50
2023-02-13T04:05:36.617Z,-1.40
2023-02-13T04:08:03.329Z,-1.50
2023-02-13T04:10:34.368Z,-1.40
2023-02-13T04:13:18.270Z,-1.40
2023-02-13T04:16:01.740Z,-1.50
2023-02-13T04:18:33.511Z,-1.50
2023-02-13T04:21:07.600Z,-1.50
2023-02-13T04:23:36.061Z,-1.60
2023-02-13T04:26:08.251Z,-1.60
2023-02-13T04:28:34.882Z,-1.70
2023-02-13T04:31:02.049Z,-1.70
2023-02-13T04:33:28.940Z,-1.60
2023-02-13T04:35:56.802Z,-1.60
2023-02-13T04:38:23.367Z,-1.60
2023-02-13T04:40:49.919Z,-1.60
2023-02-13T04:43:16.581Z,-1.60
2023-02-13T04:45:43.321Z,-1.60
2023-02-13T04:48:10.048Z,-1.60
2023-02-13T04:50:37.904Z,-1.50
2023-02-13T04:53:04.476Z,-1.50
2023-02-13T04:55:31.061Z,-1.50
2023-02-13T04:57:58.096Z,-1.50
2023-02-13T05:00:26.749Z,-1.60
2023-02-13T05:02:53.960Z,-1.60
2023-02-13T05:05:21.142Z,-1.60
2023-02-13T05:07:47.767Z,-1.70
2023-02-13T05:10:14.366Z,-1.70
2023-02-13T05:12:40.944Z,-1.70
2023-02-13T05:15:08.210Z,-1.80
2023-02-13T05:17:34.774Z,-1.80
2023-02-13T05:20:01.435Z,-1.80
2023-02-13T05:22:46.720Z,-1.80
2023-02-13T05:25:13.335Z,-1.80
2023-02-13T05:27:39.891Z,-1.90
2023-02-13T05:30:07.145Z,-1.90
2023-02-13T05:32:33.742Z,-1.90
2023-02-13T05:35:04.436Z,-1.90
2023-02-13T05:37:31.429Z,-1.90
2023-02-13T05:39:57.972Z,-1.90
2023-02-13T05:42:24.524Z,-1.90
2023-02-13T05:44:51.069Z,-1.90
2023-02-13T05:47:17.637Z,-2.00
2023-02-13T05:49:44.238Z,-2.00
2023-02-13T05:52:10.832Z,-2.00
2023-02-13T05:54:39.630Z,-2.00
2023-02-13T05:57:06.323Z,-2.00
2023-02-13T05:59:33.008Z,-2.00
2023-02-13T06:01:59.570Z,-2.00
2023-02-13T06:04:26.292Z,-1.90
2023-02-13T06:06:52.871Z,-2.00
2023-02-13T06:09:19.456Z,-2.00
2023-02-13T06:11:46.023Z,-1.90
2023-02-13T06:14:13.953Z,-1.90
2023-02-13T06:16:41.130Z,-1.90
2023-02-13T06:19:07.843Z,-1.90
2023-02-13T06:21:37.811Z,-1.80
2023-02-13T06:24:05.859Z,-1.80
2023-02-13T06:26:32.792Z,-1.90
2023-02-13T06:28:59.437Z,-1.80
2023-02-13T06:31:27.194Z,-1.90
2023-02-13T06:33:53.885Z,-1.90
2023-02-13T06:36:20.471Z,-1.90
2023-02-13T06:38:47.072Z,-1.90
2023-02-13T06:41:13.633Z,-1.90
2023-02-13T06:43:40.933Z,-1.90
2023-02-13T06:46:08.704Z,-1.90
2023-02-13T06:48:35.310Z,-1.90
2023-02-13T06:51:02.155Z,-1.90
2023-02-13T06:53:29.653Z,-1.90
2023-02-13T06:55:56.768Z,-1.80
2023-02-13T06:58:24.971Z,-1.70
2023-02-13T07:00:52.525Z,-1.70
2023-02-13T07:03:20.278Z,-1.70
2023-02-13T07:05:46.914Z,-1.60
2023-02-13T07:08:13.672Z,-1.50
2023-02-13T07:10:41.947Z,-1.50
2023-02-13T07:13:09.843Z,-1.40
2023-02-13T07:15:37.330Z,-1.20
2023-02-13T07:18:05.727Z,-1.10
2023-02-13T07:20:32.920Z,-0.90
2023-02-13T07:23:00.626Z,-0.70
2023-02-13T07:25:28.174Z,-0.50
2023-02-13T07:27:55.380Z,-0.40
2023-02-13T07:30:22.098Z,-0.30
2023-02-13T07:32:48.744Z,-0.20
2023-02-13T07:35:15.448Z,-0.10
2023-02-13T07:37:41.994Z,0.00
2023-02-13T07:40:10.272Z,0.10
2023-02-13T07:42:36.857Z,0.20
2023-02-13T07:45:05.607Z,0.30
2023-02-13T07:47:33.991Z,0.40
2023-02-13T07:50:01.173Z,0.50
2023-02-13T07:52:27.712Z,0.50
2023-02-13T07:54:54.282Z,0.50
2023-02-13T07:57:20.831Z,0.60
2023-02-13T07:59:47.393Z,0.70
2023-02-13T08:02:14.907Z,0.70
2023-02-13T08:04:41.860Z,0.80
2023-02-13T08:07:08.476Z,0.90
2023-02-13T08:09:53.493Z,1.00
2023-02-13T08:12:20.073Z,1.10
2023-02-13T08:14:46.625Z,1.30
2023-02-13T08:17:13.429Z,1.40
2023-02-13T08:19:40.293Z,1.50
2023-02-13T08:22:06.981Z,1.60
2023-02-13T08:24:33.818Z,1.60
2023-02-13T08:27:00.394Z,1.70
2023-02-13T08:29:27.072Z,1.80
2023-02-13T08:31:53.952Z,2.00
2023-02-13T08:34:20.647Z,2.10
2023-02-13T08:36:47.258Z,2.20
2023-02-13T08:39:13.860Z,2.30
2023-02-13T08:41:42.218Z,2.40
2023-02-13T08:44:10.065Z,2.50
2023-02-13T08:46:36.803Z,2.60
2023-02-13T08:49:03.625Z,2.70
2023-02-13T08:51:30.298Z,2.80
2023-02-13T08:53:57.588Z,2.90
2023-02-13T08:56:24.226Z,3.00
2023-02-13T08:58:51.132Z,3.20
2023-02-13T09:01:19.017Z,3.30
2023-02-13T09:03:45.645Z,3.40
2023-02-13T09:06:12.294Z,3.60
2023-02-13T09:08:38.898Z,3.70
2023-02-13T09:11:07.287Z,3.80
2023-02-13T09:13:35.376Z,4.00
2023-02-13T09:16:07.048Z,4.10
2023-02-13T09:21:06.816Z,4.40
2023-02-13T09:23:35.444Z,4.40
2023-02-13T09:26:07.060Z,4.50
2023-02-13T09:28:35.308Z,4.50
2023-02-13T09:31:10.025Z,4.50
2023-02-13T09:33:37.158Z,4.60
2023-02-13T09:36:15.151Z,4.70
2023-02-13T09:38:44.045Z,4.80
2023-02-13T09:41:17.387Z,5.00
2023-02-13T09:43:48.652Z,5.00
2023-02-13T09:46:27.951Z,5.00
2023-02-13T09:48:57.292Z,5.00
2023-02-13T10:16:52.616Z,6.00
2023-02-13T10:19:46.717Z,6.00
2023-02-13T10:22:28.305Z,6.10
2023-02-13T16:40:53.071Z,6.40
2023-02-13T16:43:41.612Z,6.30
2023-02-13T16:46:41.015Z,6.20
2023-02-13T16:49:10.930Z,6.20
2023-02-13T16:51:42.591Z,6.10
2023-02-13T16:54:12.141Z,5.90
2023-02-13T16:56:50.217Z,5.80
2023-02-13T16:59:24.823Z,5.70
2023-02-13T17:02:11.206Z,5.50
2023-02-13T17:04:39.183Z,5.40
2023-02-13T17:07:12.677Z,5.40
2023-02-13T17:09:39.382Z,5.40
2023-02-13T17:12:13.394Z,5.40
2023-02-13T17:14:40.162Z,5.30
2023-02-13T17:17:19.142Z,5.30
2023-02-13T17:19:45.843Z,5.30
2023-02-13T17:22:42.789Z,5.20
2023-02-13T17:25:26.226Z,5.10
2023-02-13T17:27:56.204Z,5.10
2023-02-13T17:30:28.566Z,5.00
2023-02-13T17:33:31.510Z,5.00
2023-02-13T17:35:58.122Z,4.90
2023-02-13T17:38:24.905Z,4.80
2023-02-13T17:40:51.811Z,4.70
2023-02-13T17:43:19.688Z,4.70
2023-02-13T17:45:47.499Z,4.70
2023-02-13T17:48:14.406Z,4.60
2023-02-13T17:50:41.424Z,4.50
2023-02-13T17:53:18.673Z,4.30
2023-02-13T17:55:45.221Z,4.20
2023-02-13T17:58:11.783Z,4.10
2023-02-13T18:00:38.649Z,4.20
2023-02-13T18:03:05.484Z,4.10
2023-02-13T18:05:33.105Z,4.00
2023-02-13T18:08:03.576Z,3.90
2023-02-13T18:10:33.088Z,3.70
2023-02-13T18:13:04.258Z,3.70
2023-02-13T18:15:32.657Z,3.60
2023-02-13T18:17:59.494Z,3.60
2023-02-13T18:20:26.539Z,3.50
2023-02-13T18:22:53.828Z,3.40
2023-02-13T18:25:21.575Z,3.40
2023-02-13T18:27:48.484Z,3.40
2023-02-13T18:30:19.151Z,3.30
2023-02-13T18:32:50.176Z,3.20
2023-02-13T18:35:17.570Z,3.20
2023-02-13T18:37:44.185Z,3.10
2023-02-13T18:40:11.533Z,3.10
2023-02-13T18:42:38.976Z,3.00
2023-02-13T18:45:06.365Z,2.90
2023-02-13T18:47:32.902Z,2.90
2023-02-13T18:49:59.611Z,2.90
2023-02-13T18:52:26.240Z,2.80
2023-02-13T18:54:52.902Z,2.70
2023-02-13T18:57:19.560Z,2.70
2023-02-13T18:59:46.111Z,2.70
2023-02-13T19:02:13.007Z,2.70
2023-02-13T19:04:39.736Z,2.70
2023-02-13T19:07:06.302Z,2.70
2023-02-13T19:09:32.970Z,2.70
2023-02-13T19:11:59.527Z,2.70
2023-02-13T19:14:26.886Z,2.70
2023-02-13T19:16:53.530Z,2.70
2023-02-13T19:19:20.158Z,2.60
2023-02-13T19:21:46.724Z,2.50
2023-02-13T19:24:15.420Z,2.40
2023-02-13T19:26:42.249Z,2.30
2023-02-13T19:29:09.098Z,2.30
2023-02-13T19:31:36.419Z,2.20
2023-02-13T19:34:05.555Z,2.20
2023-02-13T19:36:32.190Z,2.20
2023-02-13T19:39:04.906Z,2.20
2023-02-13T19:41:32.835Z,2.10
2023-02-13T19:44:00.307Z,2.00
2023-02-13T19:46:29.371Z,2.00
2023-02-13T19:48:56.584Z,2.00
2023-02-13T19:51:25.727Z,1.90
2023-02-13T19:54:00.776Z,1.90
2023-02-13T19:56:28.656Z,1.80
2023-02-13T19:58:55.590Z,1.80
2023-02-13T20:01:24.503Z,1.80
2023-02-13T20:03:51.741Z,1.70
2023-02-13T20:06:29.892Z,1.60
2023-02-13T20:08:59.709Z,1.60
2023-02-13T20:11:26.314Z,1.50
2023-02-13T20:13:57.456Z,1.50
2023-02-13T20:16:24.149Z,1.40
2023-02-13T20:18:51.082Z,1.40
2023-02-13T20:21:18.801Z,1.40
2023-02-13T20:23:50.302Z,1.40
2023-02-13T20:26:17.602Z,1.40
2023-02-13T20:28:46.188Z,1.40
2023-02-13T20:31:15.523Z,1.40
2023-02-13T20:33:42.991Z,1.40
2023-02-13T20:36:14.138Z,1.30
2023-02-13T20:38:41.784Z,1.40
2023-02-13T20:41:10.003Z,1.30
2023-02-13T20:43:37.006Z,1.30
2023-02-13T20:46:04.614Z,1.30
2023-02-13T20:48:32.920Z,1.30
2023-02-13T20:51:05.932Z,1.20
2023-02-13T20:53:32.873Z,1.30
2023-02-13T20:56:06.961Z,1.30
2023-02-13T20:58:34.445Z,1.30
2023-02-13T21:01:02.210Z,1.20
2023-02-13T21:03:29.015Z,1.20
2023-02-13T21:05:55.622Z,1.10
2023-02-13T21:08:22.201Z,1.10
2023-02-13T21:10:48.804Z,1.00
2023-02-13T21:13:15.356Z,1.00
2023-02-13T21:15:42.363Z,0.90
2023-02-13T21:18:09.416Z,0.90
2023-02-13T21:20:36.488Z,0.90
2023-02-13T21:23:05.302Z,0.80
2023-02-13T21:25:37.173Z,0.80
2023-02-13T21:28:04.141Z,0.80
2023-02-13T21:30:31.468Z,0.80
2023-02-13T21:32:58.377Z,0.90
2023-02-13T21:35:25.010Z,0.80
2023-02-13T21:37:51.629Z,0.70
2023-02-13T21:40:19.736Z,0.80
2023-02-13T21:42:46.394Z,0.70
2023-02-13T21:45:12.965Z,0.70
2023-02-13T21:47:39.532Z,0.80
2023-02-13T21:50:06.721Z,0.70
2023-02-13T21:52:37.356Z,0.80
2023-02-13T21:55:04.675Z,0.70
2023-02-13T21:57:31.209Z,0.70
2023-02-13T21:59:59.830Z,0.80
2023-02-13T22:02:26.952Z,0.70
2023-02-13T22:04:53.706Z,0.70
2023-02-13T22:07:20.254Z,0.60
2023-02-13T22:09:49.224Z,0.60
2023-02-13T22:12:15.894Z,0.60
2023-02-13T22:14:42.479Z,0.70
2023-02-13T22:17:09.127Z,0.70
2023-02-13T22:19:35.770Z,0.70
2023-02-13T22:22:02.332Z,0.70
2023-02-13T22:24:28.991Z,0.70
2023-02-13T22:26:55.653Z,0.70
2023-02-13T22:29:23.897Z,0.60
2023-02-13T22:31:50.610Z,0.60
2023-02-13T22:34:17.223Z,0.60
2023-02-13T22:36:43.902Z,0.50
2023-02-13T22:39:11.738Z,0.50
2023-02-13T22:41:38.701Z,0.50
2023-02-13T22:44:05.890Z,0.50
2023-02-13T22:46:33.358Z,0.40
2023-02-13T22:49:00.726Z,0.30
2023-02-13T22:51:33.086Z,0.30
2023-02-13T22:54:01.240Z,0.30
2023-02-13T22:56:29.369Z,0.20
2023-02-13T22:58:56.879Z,0.30
2023-02-13T23:01:25.502Z,0.20
2023-02-13T23:03:52.318Z,0.20
2023-02-13T23:06:19.262Z,0.20
2023-02-13T23:08:48.907Z,0.20
2023-02-13T23:11:35.190Z,0.20
2023-02-13T23:14:02.467Z,0.20
2023-02-13T23:16:49.108Z,0.20
2023-02-13T23:19:16.033Z,0.10
2023-02-13T23:21:42.596Z,0.10
2023-02-13T23:24:09.164Z,0.10
2023-02-13T23:26:35.948Z,0.10
2023-02-13T23:29:02.506Z,0.10
2023-02-13T23:31:29.233Z,0.00
2023-02-13T23:33:55.822Z,0.10
2023-02-13T23:36:22.379Z,0.10
2023-02-13T23:38:48.976Z,0.10
2023-02-13T23:41:15.548Z,0.00
2023-02-13T23:43:42.089Z,0.00
2023-02-13T23:46:08.680Z,-0.10
2023-02-13T23:48:35.310Z,-0.10
2023-02-13T23:51:02.261Z,-0.10
2023-02-13T23:53:29.299Z,-0.10
2023-02-13T23:55:57.164Z,-0.10
2023-02-13T23:58:23.727Z,0.00
